MEOW17 CYOW-CNC3
Flight info
| Callsign | MEOW17 |
|---|---|
| Flight time | 0h 46m |
| Altitude | 34000 |
| Route | TUKIR Q806 ILUSI DCT SEDOG |
| Aircraft | A319/M-SDE3FGHIRWY/LB1 |
Departure
| Time | 2026-04-23 00:10 |
|---|---|
| Airport | Ottawa Macdonald-Cartier International Airport (CYOW) |
Arrival
| Time | 2026-04-23 00:56 |
|---|---|
| Airport | Brampton-Caledon Airport (CNC3) |
| Time | Latitude | Longitude | Altitude | Speed | Heading |
|---|---|---|---|---|---|
| 2026-04-22 23:57 | 45.32084 | -75.66173 | 387 ft | 0 kts | 328° |
| 2026-04-23 00:03 | 45.32075 | -75.66164 | 386 ft | 4 kts | 327° |
| 2026-04-23 00:04 | 45.32052 | -75.66143 | 385 ft | 4 kts | 328° |
| 2026-04-23 00:04 | 45.32028 | -75.66125 | 384 ft | 4 kts | 344° |
| 2026-04-23 00:04 | 45.32008 | -75.66124 | 384 ft | 3 kts | 53° |
| 2026-04-23 00:04 | 45.32007 | -75.66127 | 384 ft | 0 kts | 58° |
| 2026-04-23 00:06 | 45.32007 | -75.66126 | 384 ft | 1 kts | 58° |
| 2026-04-23 00:06 | 45.32024 | -75.66089 | 384 ft | 8 kts | 57° |
| 2026-04-23 00:07 | 45.32064 | -75.66000 | 385 ft | 14 kts | 58° |
| 2026-04-23 00:07 | 45.32103 | -75.65914 | 384 ft | 18 kts | 57° |
| 2026-04-23 00:07 | 45.32212 | -75.65673 | 385 ft | 24 kts | 57° |
| 2026-04-23 00:07 | 45.32306 | -75.65464 | 385 ft | 26 kts | 57° |
| 2026-04-23 00:08 | 45.32409 | -75.65235 | 383 ft | 29 kts | 57° |
| 2026-04-23 00:08 | 45.32513 | -75.65005 | 380 ft | 24 kts | 58° |
| 2026-04-23 00:08 | 45.32583 | -75.64842 | 378 ft | 15 kts | 64° |
| 2026-04-23 00:08 | 45.32585 | -75.64742 | 379 ft | 16 kts | 96° |
| 2026-04-23 00:09 | 45.32556 | -75.64585 | 379 ft | 18 kts | 130° |
| 2026-04-23 00:09 | 45.32472 | -75.64583 | 380 ft | 15 kts | 234° |
| 2026-04-23 00:09 | 45.32300 | -75.64970 | 383 ft | 101 kts | 237° |
| 2026-04-23 00:09 | 45.31756 | -75.66174 | 763 ft | 163 kts | 240° |
| 2026-04-23 00:10 | 45.31132 | -75.67582 | 1890 ft | 177 kts | 243° |
| 2026-04-23 00:10 | 45.30446 | -75.69176 | 2722 ft | 201 kts | 243° |
| 2026-04-23 00:10 | 45.29675 | -75.70974 | 3582 ft | 226 kts | 242° |
| 2026-04-23 00:10 | 45.28806 | -75.72996 | 4470 ft | 253 kts | 242° |
| 2026-04-23 00:11 | 45.27858 | -75.75196 | 4871 ft | 266 kts | 241° |
| 2026-04-23 00:11 | 45.26883 | -75.77455 | 4966 ft | 270 kts | 241° |
| 2026-04-23 00:11 | 45.25900 | -75.79730 | 5027 ft | 271 kts | 242° |
| 2026-04-23 00:11 | 45.25020 | -75.82119 | 5896 ft | 271 kts | 255° |
| 2026-04-23 00:12 | 45.24751 | -75.84722 | 7387 ft | 266 kts | 272° |
| 2026-04-23 00:12 | 45.24766 | -75.87339 | 8858 ft | 265 kts | 275° |
| 2026-04-23 00:12 | 45.24800 | -75.89956 | 10255 ft | 267 kts | 275° |
| 2026-04-23 00:12 | 45.24847 | -75.92698 | 11077 ft | 286 kts | 275° |
| 2026-04-23 00:13 | 45.24895 | -75.95560 | 12208 ft | 292 kts | 275° |
| 2026-04-23 00:13 | 45.24935 | -75.98450 | 13433 ft | 295 kts | 275° |
| 2026-04-23 00:13 | 45.24970 | -76.01369 | 14548 ft | 297 kts | 276° |
| 2026-04-23 00:13 | 45.25005 | -76.04312 | 15622 ft | 299 kts | 276° |
| 2026-04-23 00:14 | 45.25035 | -76.07274 | 16698 ft | 302 kts | 277° |
| 2026-04-23 00:14 | 45.25063 | -76.10268 | 17771 ft | 304 kts | 277° |
| 2026-04-23 00:14 | 45.25091 | -76.13236 | 18739 ft | 307 kts | 278° |
| 2026-04-23 00:14 | 45.25118 | -76.16281 | 19639 ft | 310 kts | 279° |
| 2026-04-23 00:15 | 45.25146 | -76.19348 | 20541 ft | 312 kts | 280° |
| 2026-04-23 00:15 | 45.25040 | -76.22466 | 21454 ft | 325 kts | 273° |
| 2026-04-23 00:15 | 45.24446 | -76.25650 | 22342 ft | 345 kts | 262° |
| 2026-04-23 00:15 | 45.23338 | -76.28784 | 23181 ft | 361 kts | 255° |
| 2026-04-23 00:16 | 45.22108 | -76.31918 | 23936 ft | 367 kts | 255° |
| 2026-04-23 00:16 | 45.20852 | -76.35089 | 24655 ft | 371 kts | 255° |
| 2026-04-23 00:16 | 45.19582 | -76.38290 | 25377 ft | 374 kts | 255° |
| 2026-04-23 00:16 | 45.18303 | -76.41509 | 26093 ft | 376 kts | 255° |
| 2026-04-23 00:17 | 45.17014 | -76.44755 | 26724 ft | 380 kts | 255° |
| 2026-04-23 00:17 | 45.15715 | -76.48035 | 27352 ft | 383 kts | 255° |
| 2026-04-23 00:17 | 45.14400 | -76.51356 | 27998 ft | 387 kts | 255° |
| 2026-04-23 00:17 | 45.13081 | -76.54689 | 28653 ft | 390 kts | 255° |
| 2026-04-23 00:18 | 45.11751 | -76.58052 | 29297 ft | 393 kts | 255° |
| 2026-04-23 00:18 | 45.10412 | -76.61441 | 29935 ft | 396 kts | 255° |
| 2026-04-23 00:18 | 45.09059 | -76.64857 | 30478 ft | 400 kts | 255° |
| 2026-04-23 00:18 | 45.07693 | -76.68306 | 30956 ft | 404 kts | 255° |
| 2026-04-23 00:19 | 45.06315 | -76.71769 | 31591 ft | 404 kts | 255° |
| 2026-04-23 00:19 | 45.04953 | -76.75177 | 32254 ft | 404 kts | 255° |
| 2026-04-23 00:19 | 45.03568 | -76.78631 | 32926 ft | 404 kts | 255° |
| 2026-04-23 00:19 | 45.02182 | -76.82087 | 33574 ft | 404 kts | 255° |
| 2026-04-23 00:20 | 45.00794 | -76.85550 | 33906 ft | 406 kts | 255° |
| 2026-04-23 00:20 | 44.98040 | -76.92341 | 33991 ft | 383 kts | 255° |
| 2026-04-23 00:21 | 44.95443 | -76.98758 | 34016 ft | 372 kts | 256° |
| 2026-04-23 00:21 | 44.92915 | -77.05116 | 34016 ft | 371 kts | 256° |
| 2026-04-23 00:22 | 44.90373 | -77.11456 | 34015 ft | 371 kts | 256° |
| 2026-04-23 00:22 | 44.87817 | -77.17792 | 34019 ft | 372 kts | 256° |
| 2026-04-23 00:23 | 44.85258 | -77.24118 | 33978 ft | 371 kts | 255° |
| 2026-04-23 00:23 | 44.82696 | -77.30439 | 33985 ft | 372 kts | 255° |
| 2026-04-23 00:24 | 44.80129 | -77.36763 | 33985 ft | 372 kts | 255° |
| 2026-04-23 00:24 | 44.77547 | -77.43095 | 33990 ft | 374 kts | 255° |
| 2026-04-23 00:25 | 44.74945 | -77.49447 | 33994 ft | 375 kts | 255° |
| 2026-04-23 00:25 | 44.72358 | -77.55746 | 34002 ft | 374 kts | 255° |
| 2026-04-23 00:26 | 44.69755 | -77.62081 | 33972 ft | 374 kts | 255° |
| 2026-04-23 00:26 | 44.67143 | -77.68409 | 33979 ft | 374 kts | 254° |
| 2026-04-23 00:27 | 44.64531 | -77.74735 | 33985 ft | 374 kts | 254° |
| 2026-04-23 00:27 | 44.61918 | -77.81063 | 33988 ft | 374 kts | 254° |
| 2026-04-23 00:28 | 44.59301 | -77.87384 | 33965 ft | 374 kts | 254° |
| 2026-04-23 00:28 | 44.56689 | -77.93701 | 33978 ft | 374 kts | 254° |
| 2026-04-23 00:29 | 44.54066 | -78.00013 | 33975 ft | 376 kts | 254° |
| 2026-04-23 00:29 | 44.51445 | -78.06311 | 33987 ft | 376 kts | 253° |
| 2026-04-23 00:30 | 44.48794 | -78.12651 | 33990 ft | 376 kts | 253° |
| 2026-04-23 00:30 | 44.46142 | -78.18995 | 34013 ft | 384 kts | 253° |
| 2026-04-23 00:30 | 44.44777 | -78.22303 | 34006 ft | 399 kts | 253° |
| 2026-04-23 00:31 | 44.43372 | -78.25696 | 34014 ft | 406 kts | 253° |
| 2026-04-23 00:31 | 44.40487 | -78.32550 | 34016 ft | 410 kts | 252° |
| 2026-04-23 00:32 | 44.37563 | -78.39422 | 34016 ft | 412 kts | 252° |
| 2026-04-23 00:32 | 44.34644 | -78.46307 | 34024 ft | 412 kts | 252° |
| 2026-04-23 00:32 | 44.33202 | -78.49693 | 33664 ft | 399 kts | 252° |
| 2026-04-23 00:33 | 44.31770 | -78.53074 | 31808 ft | 412 kts | 251° |
| 2026-04-23 00:33 | 44.30304 | -78.56588 | 29937 ft | 424 kts | 251° |
| 2026-04-23 00:33 | 44.28798 | -78.60171 | 27816 ft | 431 kts | 249° |
| 2026-04-23 00:33 | 44.27281 | -78.63750 | 25885 ft | 440 kts | 248° |
| 2026-04-23 00:34 | 44.25712 | -78.67408 | 25246 ft | 430 kts | 248° |
| 2026-04-23 00:34 | 44.24203 | -78.70870 | 25102 ft | 406 kts | 248° |
| 2026-04-23 00:34 | 44.22766 | -78.74163 | 24794 ft | 391 kts | 248° |
| 2026-04-23 00:34 | 44.21383 | -78.77372 | 24280 ft | 383 kts | 248° |
| 2026-04-23 00:35 | 44.20031 | -78.80543 | 23721 ft | 378 kts | 248° |
| 2026-04-23 00:35 | 44.18699 | -78.83689 | 23100 ft | 375 kts | 248° |
| 2026-04-23 00:35 | 44.17376 | -78.86806 | 22457 ft | 372 kts | 248° |
| 2026-04-23 00:35 | 44.16062 | -78.89891 | 21825 ft | 370 kts | 248° |
| 2026-04-23 00:36 | 44.14819 | -78.92991 | 21198 ft | 361 kts | 254° |
| 2026-04-23 00:36 | 44.14013 | -78.96225 | 20588 ft | 350 kts | 262° |
| 2026-04-23 00:36 | 44.13341 | -78.99477 | 19962 ft | 348 kts | 262° |
| 2026-04-23 00:36 | 44.12671 | -79.02710 | 19340 ft | 346 kts | 262° |
| 2026-04-23 00:37 | 44.12156 | -79.05198 | 18867 ft | 345 kts | 262° |
| 2026-04-23 00:37 | 44.11619 | -79.08414 | 18219 ft | 338 kts | 269° |
| 2026-04-23 00:37 | 44.11261 | -79.11640 | 17565 ft | 336 kts | 269° |
| 2026-04-23 00:37 | 44.10928 | -79.14841 | 16956 ft | 333 kts | 269° |
| 2026-04-23 00:38 | 44.10608 | -79.18017 | 16365 ft | 330 kts | 269° |
| 2026-04-23 00:38 | 44.10303 | -79.21168 | 15765 ft | 327 kts | 269° |
| 2026-04-23 00:38 | 44.10023 | -79.24270 | 15193 ft | 326 kts | 269° |
| 2026-04-23 00:38 | 44.09755 | -79.27390 | 14634 ft | 323 kts | 269° |
| 2026-04-23 00:39 | 44.09497 | -79.30485 | 14110 ft | 321 kts | 269° |
| 2026-04-23 00:39 | 44.09472 | -79.33537 | 13559 ft | 310 kts | 284° |
| 2026-04-23 00:39 | 44.09984 | -79.36422 | 12958 ft | 305 kts | 289° |
| 2026-04-23 00:39 | 44.10555 | -79.39262 | 12341 ft | 304 kts | 289° |
| 2026-04-23 00:40 | 44.11134 | -79.42079 | 11740 ft | 302 kts | 289° |
| 2026-04-23 00:40 | 44.11720 | -79.44879 | 11195 ft | 301 kts | 289° |
| 2026-04-23 00:40 | 44.12298 | -79.47604 | 11036 ft | 286 kts | 290° |
| 2026-04-23 00:40 | 44.12842 | -79.50184 | 11039 ft | 273 kts | 290° |
| 2026-04-23 00:41 | 44.13373 | -79.52705 | 11046 ft | 270 kts | 290° |
| 2026-04-23 00:41 | 44.13899 | -79.55209 | 11031 ft | 268 kts | 290° |
| 2026-04-23 00:41 | 44.14416 | -79.57680 | 10645 ft | 265 kts | 290° |
| 2026-04-23 00:41 | 44.14938 | -79.60139 | 10211 ft | 265 kts | 290° |
| 2026-04-23 00:42 | 44.15463 | -79.62589 | 9749 ft | 264 kts | 290° |
| 2026-04-23 00:42 | 44.15993 | -79.65030 | 9270 ft | 263 kts | 290° |
| 2026-04-23 00:42 | 44.16528 | -79.67464 | 8785 ft | 262 kts | 290° |
| 2026-04-23 00:42 | 44.17066 | -79.69890 | 8278 ft | 262 kts | 290° |
| 2026-04-23 00:43 | 44.17607 | -79.72312 | 7777 ft | 262 kts | 290° |
| 2026-04-23 00:43 | 44.18154 | -79.74726 | 7330 ft | 260 kts | 290° |
| 2026-04-23 00:43 | 44.18415 | -79.77177 | 7014 ft | 257 kts | 268° |
| 2026-04-23 00:43 | 44.17804 | -79.79513 | 6643 ft | 262 kts | 238° |
| 2026-04-23 00:44 | 44.16615 | -79.81467 | 6467 ft | 266 kts | 230° |
| 2026-04-23 00:44 | 44.15361 | -79.83366 | 6277 ft | 266 kts | 230° |
| 2026-04-23 00:44 | 44.14125 | -79.85224 | 6084 ft | 265 kts | 230° |
| 2026-04-23 00:44 | 44.12871 | -79.87101 | 5905 ft | 265 kts | 230° |
| 2026-04-23 00:45 | 44.11617 | -79.88976 | 5711 ft | 264 kts | 230° |
| 2026-04-23 00:45 | 44.10366 | -79.90846 | 5543 ft | 264 kts | 230° |
| 2026-04-23 00:45 | 44.09115 | -79.92715 | 5373 ft | 264 kts | 230° |
| 2026-04-23 00:45 | 44.07866 | -79.94580 | 5213 ft | 263 kts | 229° |
| 2026-04-23 00:46 | 44.06617 | -79.96444 | 5050 ft | 263 kts | 229° |
| 2026-04-23 00:46 | 44.05371 | -79.98305 | 4885 ft | 263 kts | 229° |
| 2026-04-23 00:46 | 44.04126 | -80.00164 | 4580 ft | 262 kts | 229° |
| 2026-04-23 00:46 | 44.02798 | -80.01870 | 4093 ft | 262 kts | 213° |
| 2026-04-23 00:47 | 44.01093 | -80.02684 | 3773 ft | 255 kts | 192° |
| 2026-04-23 00:47 | 43.99392 | -80.03118 | 3629 ft | 241 kts | 190° |
| 2026-04-23 00:47 | 43.97777 | -80.03501 | 3514 ft | 231 kts | 191° |
| 2026-04-23 00:47 | 43.96222 | -80.03833 | 3385 ft | 222 kts | 190° |
| 2026-04-23 00:48 | 43.94722 | -80.04148 | 3254 ft | 214 kts | 190° |
| 2026-04-23 00:48 | 43.93273 | -80.04455 | 3148 ft | 207 kts | 190° |
| 2026-04-23 00:48 | 43.91885 | -80.04751 | 3074 ft | 196 kts | 190° |
| 2026-04-23 00:48 | 43.90581 | -80.05027 | 3049 ft | 183 kts | 190° |
| 2026-04-23 00:49 | 43.89327 | -80.05289 | 3051 ft | 182 kts | 189° |
| 2026-04-23 00:49 | 43.88112 | -80.05550 | 3059 ft | 174 kts | 191° |
| 2026-04-23 00:49 | 43.86967 | -80.05791 | 3059 ft | 158 kts | 189° |
| 2026-04-23 00:49 | 43.85918 | -80.06014 | 3055 ft | 149 kts | 189° |
| 2026-04-23 00:50 | 43.84910 | -80.06195 | 3044 ft | 144 kts | 187° |
| 2026-04-23 00:50 | 43.83921 | -80.06113 | 3055 ft | 143 kts | 168° |
| 2026-04-23 00:50 | 43.82933 | -80.06069 | 3062 ft | 143 kts | 181° |
| 2026-04-23 00:50 | 43.82049 | -80.05536 | 3077 ft | 144 kts | 124° |
| 2026-04-23 00:51 | 43.81636 | -80.04333 | 3054 ft | 133 kts | 108° |
| 2026-04-23 00:51 | 43.81180 | -80.03178 | 3066 ft | 138 kts | 115° |
| 2026-04-23 00:51 | 43.80859 | -80.01946 | 3066 ft | 135 kts | 95° |
| 2026-04-23 00:51 | 43.80691 | -80.00668 | 3062 ft | 136 kts | 98° |
| 2026-04-23 00:52 | 43.80443 | -79.99440 | 3052 ft | 131 kts | 100° |
| 2026-04-23 00:52 | 43.80190 | -79.98229 | 3049 ft | 131 kts | 100° |
| 2026-04-23 00:52 | 43.79919 | -79.97030 | 3042 ft | 133 kts | 107° |
| 2026-04-23 00:52 | 43.79466 | -79.95897 | 2883 ft | 136 kts | 114° |
| 2026-04-23 00:53 | 43.78994 | -79.94769 | 2665 ft | 135 kts | 113° |
| 2026-04-23 00:53 | 43.78526 | -79.93645 | 2458 ft | 134 kts | 113° |
| 2026-04-23 00:53 | 43.78059 | -79.92526 | 2250 ft | 134 kts | 114° |
| 2026-04-23 00:53 | 43.77598 | -79.91420 | 2081 ft | 132 kts | 113° |
| 2026-04-23 00:54 | 43.77138 | -79.90320 | 1906 ft | 132 kts | 113° |
| 2026-04-23 00:54 | 43.76556 | -79.89307 | 1623 ft | 136 kts | 126° |
| 2026-04-23 00:54 | 43.76110 | -79.88193 | 1360 ft | 129 kts | 107° |
| 2026-04-23 00:54 | 43.75661 | -79.87158 | 1257 ft | 130 kts | 141° |
| 2026-04-23 00:55 | 43.74795 | -79.87038 | 1213 ft | 131 kts | 207° |
| 2026-04-23 00:55 | 43.74338 | -79.88047 | 1270 ft | 126 kts | 264° |
| 2026-04-23 00:55 | 43.74599 | -79.89120 | 1242 ft | 120 kts | 322° |
| 2026-04-23 00:55 | 43.75386 | -79.89189 | 1201 ft | 123 kts | 28° |
| 2026-04-23 00:56 | 43.75753 | -79.88136 | 1040 ft | 128 kts | 77° |
| 2026-04-23 00:56 | 43.75962 | -79.87203 | 922 ft | 47 kts | 71° |
| 2026-04-23 00:56 | 43.76002 | -79.87050 | 916 ft | 0 kts | 70° |
| 2026-04-23 00:56 | 43.76007 | -79.87034 | 918 ft | 4 kts | 67° |
| 2026-04-23 00:57 | 43.76029 | -79.87039 | 917 ft | 3 kts | 301° |
| 2026-04-23 00:57 | 43.76026 | -79.87082 | 917 ft | 7 kts | 247° |
| 2026-04-23 00:57 | 43.76007 | -79.87151 | 921 ft | 7 kts | 251° |
| 2026-04-23 00:57 | 43.75994 | -79.87203 | 923 ft | 5 kts | 251° |
| 2026-04-23 00:58 | 43.75986 | -79.87232 | 925 ft | 5 kts | 250° |
| 2026-04-23 00:58 | 43.75974 | -79.87282 | 926 ft | 7 kts | 249° |
| 2026-04-23 00:58 | 43.75953 | -79.87358 | 925 ft | 10 kts | 249° |
| 2026-04-23 00:58 | 43.75956 | -79.87436 | 926 ft | 8 kts | 312° |
| 2026-04-23 00:59 | 43.75998 | -79.87493 | 926 ft | 10 kts | 315° |
| 2026-04-23 00:59 | 43.75999 | -79.87494 | 926 ft | 10 kts | 315° |
| 2026-04-23 00:59 | 43.76027 | -79.87533 | 928 ft | 8 kts | 315° |